Terminal Aerodrome Forecast
Issued by NWS Memphis, TN

Home | Current Version | Previous Version | Text Only | Print | Product List | Glossary On
Versions: 1 2 3 4 5 6 7 8 9 10 11 12 13 14 15 16 17 18
119
FTUS44 KMEG 182330
TAFJBR
TAF
KJBR 182330Z 1900/1924 08006KT P6SM VCSH BKN012 OVC030
      TEMPO 1900/1903 SCT012
     FM190800 10006KT 5SM -SHRA BR BKN007 OVC012
     FM192000 17006KT P6SM VCSH SCT009 OVC015=

USA.gov is the U.S. government's official web portal to all federal, state and local government web resources and services.